createdAt,value
2023-04-13T00:00:55.814Z,98850.78
2023-04-13T00:01:57.584Z,98846.00
2023-04-13T00:03:02.210Z,98838.44
2023-04-13T00:04:05.594Z,98844.72
2023-04-13T00:05:10.018Z,98842.81
2023-04-13T00:06:12.916Z,98844.13
2023-04-13T00:07:17.012Z,98847.69
2023-04-13T00:08:22.828Z,98846.00
2023-04-13T00:09:25.920Z,98845.41
2023-04-13T00:10:28.604Z,98848.53
2023-04-13T00:11:32.004Z,98853.59
2023-04-13T00:12:34.843Z,98839.78
2023-04-13T00:13:41.282Z,98842.69
2023-04-13T00:14:44.358Z,98839.78
2023-04-13T00:15:46.185Z,98840.81
2023-04-13T00:16:48.964Z,98839.13
2023-04-13T00:17:51.452Z,98840.41
2023-04-13T00:18:54.226Z,98836.00
2023-04-13T00:19:58.122Z,98834.94
2023-04-13T00:21:01.076Z,98836.84
2023-04-13T00:22:03.075Z,98831.59
2023-04-13T00:23:05.794Z,98835.41
2023-04-13T00:24:09.033Z,98833.72
2023-04-13T00:25:14.437Z,98834.56
2023-04-13T00:26:16.452Z,98828.91
2023-04-13T00:27:19.109Z,98838.34
2023-04-13T00:28:21.462Z,98831.19
2023-04-13T00:29:24.179Z,98830.16
2023-04-13T00:30:26.160Z,98832.88
2023-04-13T00:31:29.581Z,98838.97
2023-04-13T00:32:31.562Z,98829.09
2023-04-13T00:33:34.292Z,98846.91
2023-04-13T00:34:36.011Z,98826.97
2023-04-13T00:35:41.138Z,98826.19
2023-04-13T00:36:42.867Z,98826.34
2023-04-13T00:37:47.039Z,98819.25
2023-04-13T00:38:48.754Z,98818.59
2023-04-13T00:39:52.836Z,98816.72
2023-04-13T00:40:55.957Z,98814.44
2023-04-13T00:41:58.664Z,98813.41
2023-04-13T00:43:02.212Z,98813.59
2023-04-13T00:44:04.378Z,98821.53
2023-04-13T00:45:09.579Z,98814.84
2023-04-13T00:46:11.498Z,98808.75
2023-04-13T00:47:17.716Z,98812.09
2023-04-13T00:48:19.520Z,98814.38
2023-04-13T00:49:22.968Z,98809.97
2023-04-13T00:50:24.784Z,98805.38
2023-04-13T00:51:27.544Z,98802.88
2023-04-13T00:52:29.514Z,98805.41
2023-04-13T00:53:33.546Z,98813.78
2023-04-13T00:54:35.671Z,98814.19
2023-04-13T00:55:42.474Z,98819.66
2023-04-13T00:56:44.718Z,98807.09
2023-04-13T00:57:49.972Z,98797.00
2023-04-13T00:58:51.861Z,98806.69
2023-04-13T00:59:54.651Z,98806.91
2023-04-13T01:00:56.329Z,98790.75
2023-04-13T01:02:02.164Z,98795.59
2023-04-13T01:03:04.149Z,98808.16
2023-04-13T01:04:06.935Z,98792.88
2023-04-13T01:05:12.182Z,98809.63
2023-04-13T01:06:21.205Z,98800.00
2023-04-13T01:07:30.129Z,98796.63
2023-04-13T01:08:37.204Z,98804.41
2023-04-13T01:09:42.112Z,98810.66
2023-04-13T01:10:51.656Z,98805.44
2023-04-13T01:11:58.161Z,98803.97
2023-04-13T01:13:09.577Z,98801.88
2023-04-13T01:14:15.379Z,98803.09
2023-04-13T01:15:18.664Z,98805.22
2023-04-13T01:16:22.275Z,98793.88
2023-04-13T01:17:28.701Z,98805.81
2023-04-13T01:18:34.757Z,98809.56
2023-04-13T01:19:52.199Z,98806.00
2023-04-13T01:20:55.044Z,98803.53
2023-04-13T01:21:57.934Z,98811.69
2023-04-13T01:23:02.163Z,98806.66
2023-04-13T01:24:17.009Z,98805.16
2023-04-13T01:25:28.174Z,98808.75
2023-04-13T01:26:38.832Z,98812.09
2023-04-13T01:27:46.918Z,98799.53
2023-04-13T01:28:51.257Z,98806.00
2023-04-13T01:29:56.871Z,98805.16
2023-04-13T01:31:01.547Z,98804.97
2023-04-13T01:32:03.463Z,98806.25
2023-04-13T01:33:06.839Z,98803.34
2023-04-13T01:34:09.123Z,98815.91
2023-04-13T01:35:11.855Z,98815.09
2023-04-13T01:36:14.452Z,98817.59
2023-04-13T01:37:17.782Z,98813.19
2023-04-13T01:38:24.602Z,98819.25
2023-04-13T01:39:32.054Z,98815.72
2023-04-13T01:40:36.773Z,98813.81
2023-04-13T01:41:39.411Z,98826.38
2023-04-13T01:42:43.282Z,98816.78
2023-04-13T01:43:46.264Z,98816.78
2023-04-13T01:44:47.954Z,98815.09
2023-04-13T01:45:54.879Z,98819.50
2023-04-13T01:47:02.265Z,98828.06
2023-04-13T01:48:09.885Z,98823.66
2023-04-13T01:49:11.823Z,98826.19
2023-04-13T01:50:19.373Z,98834.56
2023-04-13T01:51:24.303Z,98827.22
2023-04-13T01:52:28.202Z,98824.50
2023-04-13T01:53:31.518Z,98822.81
2023-04-13T01:54:34.889Z,98819.88
2023-04-13T01:55:38.305Z,98829.13
2023-04-13T01:56:41.614Z,98827.22
2023-04-13T01:57:47.274Z,98828.72
2023-04-13T01:58:52.011Z,98822.84
2023-04-13T01:59:53.713Z,98829.97
2023-04-13T02:00:56.388Z,98820.75
2023-04-13T02:01:59.826Z,98821.19
2023-04-13T02:03:04.414Z,98812.78
2023-04-13T02:04:07.762Z,98826.44
2023-04-13T02:05:10.684Z,98821.63
2023-04-13T02:06:13.899Z,98827.06
2023-04-13T02:07:16.311Z,98818.69
2023-04-13T02:08:20.635Z,98825.38
2023-04-13T02:09:22.432Z,98819.09
2023-04-13T02:10:26.440Z,98813.25
2023-04-13T02:11:28.473Z,98825.38
2023-04-13T02:12:31.123Z,98818.91
2023-04-13T02:13:35.408Z,98826.66
2023-04-13T02:14:37.384Z,98830.03
2023-04-13T02:15:41.451Z,98815.75
2023-04-13T02:16:43.245Z,98823.94
2023-04-13T02:17:46.002Z,98818.06
2023-04-13T02:18:49.222Z,98831.47
2023-04-13T02:19:50.928Z,98837.78
2023-04-13T02:21:00.516Z,98841.53
2023-04-13T02:22:02.224Z,98830.44
2023-04-13T02:23:04.953Z,98843.41
2023-04-13T02:24:07.572Z,98844.91
2023-04-13T02:25:11.619Z,98847.63
2023-04-13T02:26:14.181Z,98839.44
2023-04-13T02:27:17.189Z,98838.41
2023-04-13T02:28:18.906Z,98847.19
2023-04-13T02:29:24.116Z,98843.81
2023-04-13T02:30:26.098Z,98833.75
2023-04-13T02:31:31.955Z,98845.94
2023-04-13T02:32:35.391Z,98852.00
2023-04-13T02:33:39.836Z,98846.75
2023-04-13T02:34:42.644Z,98863.56
2023-04-13T02:35:45.621Z,98857.91
2023-04-13T02:36:47.385Z,98852.22
2023-04-13T02:37:50.041Z,98852.84
2023-04-13T02:38:53.027Z,98855.97
2023-04-13T02:39:55.811Z,98849.28
2023-04-13T02:40:59.109Z,98855.56
2023-04-13T02:42:02.300Z,98849.88
2023-04-13T02:43:04.289Z,98849.69
2023-04-13T02:44:06.976Z,98849.25
2023-04-13T02:45:12.228Z,98852.59
2023-04-13T02:46:15.874Z,98855.13
2023-04-13T02:47:17.635Z,98854.69
2023-04-13T02:48:20.539Z,98849.25
2023-04-13T02:49:22.295Z,98853.44
2023-04-13T02:50:25.055Z,98849.44
2023-04-13T02:51:27.981Z,98839.38
2023-04-13T02:52:31.056Z,98846.28
2023-04-13T02:53:32.767Z,98843.34
2023-04-13T02:54:35.496Z,98844.38
2023-04-13T02:55:37.696Z,98850.69
2023-04-13T02:56:40.478Z,98839.56
2023-04-13T02:57:42.325Z,98842.91
2023-04-13T02:58:45.905Z,98844.81
2023-04-13T02:59:47.869Z,98838.28
2023-04-13T03:00:52.073Z,98843.75
2023-04-13T03:01:53.997Z,98837.69
2023-04-13T03:02:57.387Z,98840.63
2023-04-13T03:03:59.317Z,98842.28
2023-04-13T03:05:02.808Z,98841.25
2023-04-13T03:06:04.843Z,98838.53
2023-04-13T03:07:09.997Z,98839.97
2023-04-13T03:08:11.835Z,98845.88
2023-04-13T03:09:16.118Z,98836.84
2023-04-13T03:10:18.806Z,98838.09
2023-04-13T03:11:23.523Z,98836.19
2023-04-13T03:12:26.476Z,98837.88
2023-04-13T03:13:29.163Z,98823.00
2023-04-13T03:14:33.158Z,98826.31
2023-04-13T03:15:36.233Z,98824.84
2023-04-13T03:16:39.324Z,98829.44
2023-04-13T03:17:44.041Z,98832.81
2023-04-13T03:18:45.877Z,98825.28
2023-04-13T03:19:49.532Z,98826.91
2023-04-13T03:20:51.207Z,98827.38
2023-04-13T03:21:54.017Z,98826.91
2023-04-13T03:22:56.243Z,98826.53
2023-04-13T03:23:59.363Z,98820.22
2023-04-13T03:25:01.537Z,98826.06
2023-04-13T03:26:04.251Z,98828.59
2023-04-13T03:27:06.134Z,98823.59
2023-04-13T03:28:08.911Z,98833.44
2023-04-13T03:29:10.922Z,98826.31
2023-04-13T03:30:14.149Z,98825.28
2023-04-13T03:31:15.969Z,98825.47
2023-04-13T03:32:21.366Z,98831.78
2023-04-13T03:33:23.085Z,98824.63
2023-04-13T03:34:25.849Z,98826.13
2023-04-13T03:35:27.850Z,98833.66
2023-04-13T03:36:31.539Z,98832.81
2023-04-13T03:37:40.206Z,98837.63
2023-04-13T03:38:43.076Z,98828.03
2023-04-13T03:39:44.841Z,98829.69
2023-04-13T03:40:47.627Z,98836.84
2023-04-13T03:41:49.317Z,98837.63
2023-04-13T03:42:52.025Z,98835.09
2023-04-13T03:43:53.781Z,98842.03
2023-04-13T03:44:56.437Z,98842.03
2023-04-13T03:45:58.191Z,98836.59
2023-04-13T03:47:01.159Z,98845.16
2023-04-13T03:48:05.901Z,98846.28
2023-04-13T03:49:10.445Z,98842.25
2023-04-13T03:50:12.238Z,98835.53
2023-04-13T03:51:14.913Z,98852.13
2023-04-13T03:52:16.645Z,98846.91
2023-04-13T03:53:19.340Z,98835.09
2023-04-13T03:54:21.378Z,98832.38
2023-04-13T03:55:24.162Z,98839.13
2023-04-13T03:56:26.713Z,98838.09
2023-04-13T03:57:29.435Z,98837.41
2023-04-13T03:58:31.278Z,98845.38
2023-04-13T03:59:33.980Z,98839.72
2023-04-13T04:00:35.834Z,98835.75
2023-04-13T04:01:38.650Z,98838.66
2023-04-13T04:02:40.644Z,98840.75
2023-04-13T04:03:45.046Z,98832.34
2023-04-13T04:04:46.836Z,98829.63
2023-04-13T04:05:49.591Z,98834.44
2023-04-13T04:06:51.411Z,98835.09
2023-04-13T04:07:54.072Z,98843.47
2023-04-13T04:08:55.963Z,98840.34
2023-04-13T04:09:58.659Z,98840.41
2023-04-13T04:11:00.298Z,98835.75
2023-04-13T04:12:03.769Z,98844.13
2023-04-13T04:13:06.040Z,98829.63
2023-04-13T04:14:08.736Z,98837.81
2023-04-13T04:15:10.878Z,98839.25
2023-04-13T04:16:13.687Z,98847.44
2023-04-13T04:17:15.470Z,98850.81
2023-04-13T04:18:18.154Z,98848.47
2023-04-13T04:19:21.221Z,98854.38
2023-04-13T04:20:24.063Z,98850.16
2023-04-13T04:21:34.359Z,98845.75
2023-04-13T04:22:37.147Z,98849.09
2023-04-13T04:23:40.328Z,98856.66
2023-04-13T04:24:42.465Z,98855.22
2023-04-13T04:25:45.349Z,98844.50
2023-04-13T04:26:50.199Z,98852.50
2023-04-13T04:27:53.117Z,98852.50
2023-04-13T04:29:03.111Z,98852.88
2023-04-13T04:30:07.154Z,98851.84
2023-04-13T04:31:10.820Z,98852.03
2023-04-13T04:32:15.438Z,98846.78
2023-04-13T04:33:17.110Z,98851.84
2023-04-13T04:34:19.964Z,98853.53
2023-04-13T04:35:26.113Z,98847.63
2023-04-13T04:36:28.835Z,98851.63
2023-04-13T04:37:37.692Z,98853.72
2023-04-13T04:38:41.295Z,98861.94
2023-04-13T04:39:44.554Z,98865.50
2023-04-13T04:40:47.301Z,98850.81
2023-04-13T04:41:49.177Z,98862.34
2023-04-13T04:42:51.991Z,98859.38
2023-04-13T04:43:56.734Z,98848.28
2023-04-13T04:44:59.875Z,98854.97
2023-04-13T04:46:04.458Z,98848.28
2023-04-13T04:47:07.555Z,98854.59
2023-04-13T04:48:09.517Z,98856.91
2023-04-13T04:49:12.239Z,98862.78
2023-04-13T04:50:14.486Z,98861.94
2023-04-13T04:51:24.777Z,98859.00
2023-04-13T04:52:26.459Z,98867.19
2023-04-13T04:53:29.126Z,98869.72
2023-04-13T04:54:30.880Z,98868.22
2023-04-13T04:55:34.617Z,98866.97
2023-04-13T04:56:36.313Z,98878.91
2023-04-13T04:57:39.027Z,98867.38
2023-04-13T04:58:40.714Z,98874.72
2023-04-13T04:59:43.401Z,98877.03
2023-04-13T05:00:45.219Z,98871.59
2023-04-13T05:01:49.805Z,98886.47
2023-04-13T05:02:51.813Z,98891.94
2023-04-13T05:03:54.582Z,98887.72
2023-04-13T05:04:57.403Z,98886.91
2023-04-13T05:06:00.672Z,98886.47
2023-04-13T05:07:03.774Z,98887.09
2023-04-13T05:08:06.607Z,98890.00
2023-04-13T05:09:09.030Z,98886.03
2023-04-13T05:10:11.964Z,98899.91
2023-04-13T05:11:14.688Z,98886.66
2023-04-13T05:12:16.847Z,98893.81
2023-04-13T05:13:19.509Z,98893.38
2023-04-13T05:14:21.279Z,98890.63
2023-04-13T05:15:24.996Z,98893.56
2023-04-13T05:16:30.961Z,98896.53
2023-04-13T05:17:32.835Z,98901.34
2023-04-13T05:18:44.935Z,98891.06
2023-04-13T05:19:48.144Z,98900.50
2023-04-13T05:20:49.884Z,98906.56
2023-04-13T05:21:52.568Z,98892.13
2023-04-13T05:22:55.631Z,98904.28
2023-04-13T05:23:58.316Z,98898.41
2023-04-13T05:25:00.042Z,98892.53
2023-04-13T05:26:02.730Z,98903.84
2023-04-13T05:27:04.453Z,98905.09
2023-04-13T05:28:07.239Z,98900.69
2023-04-13T05:29:09.358Z,98891.00
2023-04-13T05:30:12.629Z,98896.25
2023-04-13T05:31:15.744Z,98899.84
2023-04-13T05:32:18.516Z,98899.41
2023-04-13T05:33:20.616Z,98895.19
2023-04-13T05:34:23.307Z,98904.66
2023-04-13T05:35:27.982Z,98904.69
2023-04-13T05:36:32.015Z,98897.09
2023-04-13T05:37:34.777Z,98896.03
2023-04-13T05:38:38.896Z,98908.25
2023-04-13T05:39:41.621Z,98902.38
2023-04-13T05:40:43.378Z,98903.38
2023-04-13T05:41:46.112Z,98914.09
2023-04-13T05:42:47.997Z,98907.00
2023-04-13T05:43:51.384Z,98911.41
2023-04-13T05:44:53.103Z,98912.00
2023-04-13T05:45:55.950Z,98908.41
2023-04-13T05:46:58.178Z,98907.81
2023-04-13T05:48:00.945Z,98900.22
2023-04-13T05:49:02.754Z,98909.88
2023-04-13T05:50:06.064Z,98922.88
2023-04-13T05:51:08.348Z,98913.66
2023-04-13T05:52:11.034Z,98921.66
2023-04-13T05:53:12.798Z,98927.91
2023-04-13T05:54:17.484Z,98934.25
2023-04-13T05:55:21.952Z,98926.91
2023-04-13T05:56:23.995Z,98932.56
2023-04-13T05:57:27.170Z,98931.72
2023-04-13T05:58:28.992Z,98935.09
2023-04-13T05:59:31.993Z,98938.44
2023-04-13T06:00:34.458Z,98932.13
2023-04-13T06:01:37.910Z,98930.88
2023-04-13T06:02:41.759Z,98933.59
2023-04-13T06:03:46.288Z,98937.19
2023-04-13T06:04:48.863Z,98936.75
2023-04-13T06:05:52.508Z,98934.84
2023-04-13T06:06:55.908Z,98932.28
2023-04-13T06:07:59.745Z,98944.06
2023-04-13T06:09:02.535Z,98933.53
2023-04-13T06:10:06.955Z,98943.44
2023-04-13T06:11:09.787Z,98938.41
2023-04-13T06:12:11.536Z,98940.09
2023-04-13T06:13:14.588Z,98936.16
2023-04-13T06:14:17.788Z,98946.22
2023-04-13T06:15:20.863Z,98955.44
2023-04-13T06:16:23.348Z,98946.59
2023-04-13T06:17:26.519Z,98948.91
2023-04-13T06:18:28.830Z,98947.66
2023-04-13T06:19:31.763Z,98948.94
2023-04-13T06:20:34.328Z,98944.72
2023-04-13T06:21:37.150Z,98947.66
2023-04-13T06:22:38.853Z,98960.28
2023-04-13T06:23:41.611Z,98957.31
2023-04-13T06:24:43.268Z,98952.69
2023-04-13T06:25:47.409Z,98959.44
2023-04-13T06:26:49.109Z,98965.31
2023-04-13T06:27:51.866Z,98960.28
2023-04-13T06:28:53.600Z,98957.53
2023-04-13T06:29:56.877Z,98963.63
2023-04-13T06:30:58.639Z,98961.28
2023-04-13T06:32:01.416Z,98960.44
2023-04-13T06:33:04.285Z,98966.69
2023-04-13T06:34:06.057Z,98948.22
2023-04-13T06:35:09.231Z,98966.03
2023-04-13T06:36:11.229Z,98961.81
2023-04-13T06:37:13.984Z,98959.53
2023-04-13T06:38:15.665Z,98965.56
2023-04-13T06:39:18.335Z,98964.34
2023-04-13T06:40:20.641Z,98959.69
2023-04-13T06:41:24.664Z,98961.59
2023-04-13T06:42:26.606Z,98974.78
2023-04-13T06:43:29.934Z,98967.25
2023-04-13T06:44:31.715Z,98964.72
2023-04-13T06:45:34.743Z,98958.22
2023-04-13T06:46:36.504Z,98961.97
2023-04-13T06:47:40.958Z,98966.34
2023-04-13T06:48:42.878Z,98960.00
2023-04-13T06:49:45.952Z,98968.19
2023-04-13T06:50:47.651Z,98987.13
2023-04-13T06:51:50.391Z,98966.78
2023-04-13T06:52:56.104Z,98966.75
2023-04-13T06:53:57.811Z,98976.41
2023-04-13T06:55:00.513Z,98991.16
2023-04-13T06:56:03.181Z,98977.13
2023-04-13T06:57:06.565Z,98979.59
2023-04-13T06:58:09.188Z,98978.34
2023-04-13T06:59:11.098Z,98977.88
2023-04-13T07:00:29.115Z,98976.59
2023-04-13T07:01:32.794Z,98971.78
2023-04-13T07:02:34.846Z,98975.28
2023-04-13T07:03:37.704Z,98978.69
2023-04-13T07:04:39.720Z,98973.81
2023-04-13T07:05:43.516Z,98985.53
2023-04-13T07:06:45.526Z,98982.38
2023-04-13T07:07:48.248Z,98990.50
2023-04-13T07:08:49.954Z,98976.47
2023-04-13T07:09:52.798Z,98982.00
2023-04-13T07:10:55.265Z,98990.50
2023-04-13T07:11:58.005Z,98971.94
2023-04-13T07:13:01.019Z,98989.75
2023-04-13T07:14:03.849Z,98993.94
2023-04-13T07:15:06.943Z,98998.59
2023-04-13T07:16:12.182Z,98994.56
2023-04-13T07:17:14.304Z,98998.59
2023-04-13T07:18:16.981Z,98998.34
2023-04-13T07:19:20.517Z,99001.81
2023-04-13T07:20:23.254Z,99006.44
2023-04-13T07:21:24.999Z,98999.88
2023-04-13T07:22:31.691Z,99000.50
2023-04-13T07:23:34.534Z,98996.94
2023-04-13T07:24:36.710Z,98992.09
2023-04-13T07:25:39.365Z,99001.53
2023-04-13T07:26:42.092Z,99008.91
2023-04-13T07:27:44.094Z,98993.38
2023-04-13T07:28:48.259Z,99000.72
2023-04-13T07:29:52.286Z,98995.03
2023-04-13T07:30:54.008Z,98992.69
2023-04-13T07:32:01.264Z,98991.06
2023-04-13T07:33:04.109Z,98997.59
2023-04-13T07:34:05.917Z,98994.38
2023-04-13T07:35:09.324Z,98994.78
2023-04-13T07:36:12.174Z,98997.47
2023-04-13T07:37:13.853Z,99003.13
2023-04-13T07:38:16.592Z,98997.31
2023-04-13T07:39:19.010Z,99006.72
2023-04-13T07:40:21.665Z,99002.09
2023-04-13T07:41:24.275Z,99010.31
2023-04-13T07:42:27.013Z,99019.16
2023-04-13T07:43:29.736Z,99013.69
2023-04-13T07:44:34.181Z,99013.44
2023-04-13T07:45:35.871Z,99017.19
2023-04-13T07:46:39.417Z,99016.41
2023-04-13T07:47:41.612Z,99033.03
2023-04-13T07:48:44.855Z,99015.59
2023-04-13T07:49:47.625Z,99027.56
2023-04-13T07:50:49.347Z,99027.56
2023-04-13T07:51:53.614Z,99033.03
2023-04-13T07:52:56.308Z,99012.03
2023-04-13T07:53:58.068Z,99022.53
2023-04-13T07:55:03.114Z,99018.38
2023-04-13T07:56:05.577Z,99050.34
2023-04-13T07:57:08.279Z,99036.88
2023-04-13T07:58:10.932Z,99027.84
2023-04-13T07:59:13.919Z,99022.56
2023-04-13T08:00:20.655Z,99024.91
2023-04-13T08:01:22.589Z,99030.59
2023-04-13T08:02:25.615Z,99034.78
2023-04-13T08:03:31.009Z,99033.09
2023-04-13T08:04:36.128Z,99040.94
2023-04-13T08:05:38.905Z,99038.78
2023-04-13T08:06:40.860Z,99034.81
2023-04-13T08:07:46.529Z,99045.53
2023-04-13T08:08:48.623Z,99042.81
2023-04-13T08:09:52.646Z,99050.34
2023-04-13T08:10:55.444Z,99033.09
2023-04-13T08:11:58.898Z,99044.44
2023-04-13T08:13:00.922Z,99054.13
2023-04-13T08:14:03.770Z,99051.38
2023-04-13T08:15:07.587Z,99046.53
2023-04-13T08:16:11.483Z,99053.69
2023-04-13T08:17:14.211Z,99048.22
2023-04-13T08:18:15.950Z,99041.47
2023-04-13T08:19:18.588Z,99048.38
2023-04-13T08:20:21.182Z,99046.03
2023-04-13T08:21:23.858Z,99046.22
2023-04-13T08:22:25.546Z,99049.34
2023-04-13T08:23:28.410Z,99052.25
2023-04-13T08:24:31.125Z,99049.91
2023-04-13T08:25:34.375Z,99048.25
2023-04-13T08:26:36.222Z,99057.25
2023-04-13T08:27:38.930Z,99056.41
2023-04-13T08:28:40.693Z,99048.00
2023-04-13T08:29:43.359Z,99047.97
2023-04-13T08:30:45.821Z,99059.09
2023-04-13T08:31:50.391Z,99057.59
2023-04-13T08:32:53.697Z,99053.59
2023-04-13T08:33:57.704Z,99052.75
2023-04-13T08:34:59.513Z,99063.44
2023-04-13T08:36:02.275Z,99028.81
2023-04-13T08:37:04.061Z,99060.22
2023-04-13T08:38:07.081Z,99063.09
2023-04-13T08:39:10.443Z,99065.19
2023-04-13T08:40:13.589Z,99076.56
2023-04-13T08:41:17.801Z,99063.09
2023-04-13T08:42:20.458Z,99064.19
2023-04-13T08:43:23.209Z,99069.66
2023-04-13T08:44:25.106Z,99066.50
2023-04-13T08:45:30.541Z,99063.56
2023-04-13T08:46:33.208Z,99071.97
2023-04-13T08:47:37.314Z,99070.31
2023-04-13T08:48:52.617Z,99065.44
2023-04-13T08:49:58.428Z,99072.81
2023-04-13T08:51:02.595Z,99071.97
2023-04-13T08:52:08.775Z,99073.44
2023-04-13T08:53:10.579Z,99077.44
2023-04-13T08:54:14.847Z,99068.41
2023-04-13T08:55:17.888Z,99076.19
2023-04-13T08:56:28.174Z,99075.34
2023-04-13T08:57:37.533Z,99066.06
2023-04-13T08:58:42.962Z,99070.03
2023-04-13T08:59:45.816Z,99071.44
2023-04-13T09:00:50.041Z,99065.13
2023-04-13T09:01:53.310Z,99080.09
2023-04-13T09:03:04.912Z,99076.47
2023-04-13T09:04:11.618Z,99068.75
2023-04-13T09:05:16.385Z,99069.84
2023-04-13T09:06:23.025Z,99067.41
2023-04-13T09:07:27.971Z,99066.66
2023-04-13T09:08:34.563Z,99074.19
2023-04-13T09:09:38.280Z,99072.25
2023-04-13T09:10:42.235Z,99073.06
2023-04-13T09:11:46.393Z,99077.31
2023-04-13T09:12:50.889Z,99075.19
2023-04-13T09:13:53.808Z,99072.88
2023-04-13T09:14:55.634Z,99076.44
2023-04-13T09:15:58.298Z,99076.34
2023-04-13T09:17:00.052Z,99075.09
2023-04-13T09:18:10.998Z,99082.47
2023-04-13T09:19:13.958Z,99073.78
2023-04-13T09:20:18.901Z,99081.34
2023-04-13T09:21:20.675Z,99087.81
2023-04-13T09:22:23.327Z,99094.63
2023-04-13T09:23:26.237Z,99092.56
2023-04-13T09:24:40.168Z,99085.41
2023-04-13T09:25:42.536Z,99095.34
2023-04-13T09:26:46.109Z,99095.59
2023-04-13T09:27:47.809Z,99092.03
2023-04-13T09:28:54.297Z,99101.25
2023-04-13T09:30:00.867Z,99089.94
2023-04-13T09:31:03.965Z,99090.53
2023-04-13T09:32:07.715Z,99097.88
2023-04-13T09:33:11.695Z,99095.69
2023-04-13T09:34:15.352Z,99090.38
2023-04-13T09:35:17.873Z,99086.97
2023-04-13T09:36:22.497Z,99109.94
2023-04-13T09:37:24.512Z,99098.72
2023-04-13T09:38:31.388Z,99106.03
2023-04-13T09:39:34.231Z,99092.28
2023-04-13T09:40:39.033Z,99101.28
2023-04-13T09:41:46.557Z,99096.50
2023-04-13T09:42:55.874Z,99101.06
2023-04-13T09:43:57.968Z,99095.34
2023-04-13T09:45:00.966Z,99102.13
2023-04-13T09:46:03.846Z,99103.19
2023-04-13T09:47:07.773Z,99103.97
2023-04-13T09:48:20.609Z,99097.81
2023-04-13T09:49:24.206Z,99110.59
2023-04-13T09:50:28.270Z,99111.63
2023-04-13T09:51:38.369Z,99103.78
2023-04-13T09:52:40.623Z,99118.09
2023-04-13T09:53:45.751Z,99114.94
2023-04-13T09:54:49.909Z,99111.63
2023-04-13T09:55:59.651Z,99100.78
2023-04-13T09:57:01.380Z,99104.66
2023-04-13T09:58:11.093Z,99114.94
2023-04-13T09:59:13.318Z,99102.00
2023-04-13T10:00:21.055Z,99101.13
2023-04-13T10:01:24.783Z,99101.66
2023-04-13T10:02:27.272Z,99101.56
2023-04-13T10:03:32.221Z,99099.16
2023-04-13T10:04:34.930Z,99099.09
2023-04-13T10:05:51.144Z,99106.78
2023-04-13T10:07:00.935Z,99104.78
2023-04-13T10:08:02.616Z,99100.31
2023-04-13T10:09:05.754Z,99100.47
2023-04-13T10:10:09.676Z,99096.66
2023-04-13T10:11:14.374Z,99097.50
2023-04-13T10:12:16.961Z,99109.31
2023-04-13T10:13:24.436Z,99102.66
2023-04-13T10:14:33.141Z,99100.28
2023-04-13T10:15:50.951Z,99098.19
2023-04-13T10:17:33.566Z,99090.88
2023-04-13T10:18:42.699Z,99102.88
2023-04-13T10:19:47.416Z,99113.19
2023-04-13T10:20:50.351Z,99105.88
2023-04-13T10:21:54.831Z,99109.03
2023-04-13T10:22:57.231Z,99111.53
2023-04-13T10:24:00.229Z,99102.47
2023-04-13T10:25:03.144Z,99127.75
2023-04-13T10:26:06.539Z,99105.22
2023-04-13T10:27:15.090Z,99110.00
2023-04-13T10:28:17.470Z,99111.59
2023-04-13T10:29:28.381Z,99104.44
2023-04-13T10:30:31.310Z,99102.09
2023-04-13T10:31:39.570Z,99108.09
2023-04-13T10:32:42.736Z,99113.25
2023-04-13T10:33:48.921Z,99103.88
2023-04-13T10:34:52.936Z,99106.63
2023-04-13T10:35:57.765Z,99091.13
2023-04-13T10:37:03.761Z,99110.88
2023-04-13T10:38:08.670Z,99102.78
2023-04-13T10:39:10.850Z,99098.94
2023-04-13T10:40:16.256Z,99094.06
2023-04-13T10:41:24.915Z,99102.06
2023-04-13T10:42:28.107Z,99109.81
2023-04-13T10:43:32.487Z,99101.94
2023-04-13T10:44:45.256Z,99101.63
2023-04-13T10:45:47.923Z,99101.28
2023-04-13T10:46:50.894Z,99097.63
2023-04-13T10:47:54.238Z,99098.34
2023-04-13T10:48:59.380Z,99105.63
2023-04-13T10:50:02.293Z,99114.47
2023-04-13T10:51:05.965Z,99112.09
2023-04-13T10:52:10.093Z,99104.25
2023-04-13T10:53:11.864Z,99111.44
2023-04-13T10:54:15.217Z,99104.38
2023-04-13T10:55:19.124Z,99107.19
2023-04-13T10:56:21.868Z,99087.41
2023-04-13T10:57:23.599Z,99094.69
2023-04-13T10:58:28.537Z,99104.25
2023-04-13T10:59:53.618Z,99089.59
2023-04-13T11:00:59.695Z,99101.75
2023-04-13T11:02:02.090Z,99100.09
2023-04-13T11:03:06.646Z,99105.09
2023-04-13T11:04:15.236Z,99092.47
2023-04-13T11:05:20.850Z,99099.97
2023-04-13T11:06:23.610Z,99100.09
2023-04-13T11:07:26.188Z,99101.03
2023-04-13T11:08:30.362Z,99100.72
2023-04-13T11:09:32.030Z,99093.75
2023-04-13T11:10:34.745Z,99086.47
2023-04-13T11:11:39.634Z,99084.94
2023-04-13T11:12:49.991Z,99094.03
2023-04-13T11:13:52.698Z,99091.13
2023-04-13T11:14:54.374Z,99088.97
2023-04-13T11:16:03.878Z,99083.38
2023-04-13T11:17:07.985Z,99082.38
2023-04-13T11:18:10.429Z,99090.63
2023-04-13T11:19:14.506Z,99092.75
2023-04-13T11:20:16.687Z,99095.38
2023-04-13T11:21:19.384Z,99095.94
2023-04-13T11:22:23.559Z,99091.28
2023-04-13T11:23:26.236Z,99094.03
2023-04-13T11:24:33.792Z,99092.06
2023-04-13T11:25:36.581Z,99088.69
2023-04-13T11:26:39.783Z,99085.06
2023-04-13T11:27:41.589Z,99088.47
2023-04-13T11:28:46.185Z,99092.50
2023-04-13T11:29:57.459Z,99090.00
2023-04-13T11:31:01.511Z,99084.75
2023-04-13T11:32:05.933Z,99093.00
2023-04-13T11:33:09.874Z,99094.59
2023-04-13T11:34:14.035Z,99110.38
2023-04-13T11:35:16.553Z,99100.66
2023-04-13T11:36:20.445Z,99096.63
2023-04-13T11:37:22.809Z,99100.56
2023-04-13T11:38:25.683Z,99098.66
2023-04-13T11:39:29.501Z,99106.56
2023-04-13T11:40:32.451Z,99094.78
2023-04-13T11:41:39.339Z,99092.94
2023-04-13T11:42:43.150Z,99097.25
2023-04-13T11:43:46.145Z,99083.22
2023-04-13T11:44:49.373Z,99088.97
2023-04-13T11:45:52.147Z,99083.59
2023-04-13T11:46:54.074Z,99087.16
2023-04-13T11:47:57.831Z,99096.34
2023-04-13T11:48:59.975Z,99100.28
2023-04-13T11:50:04.604Z,99089.56
2023-04-13T11:51:06.622Z,99087.84
2023-04-13T11:52:09.386Z,99086.69
2023-04-13T11:53:12.214Z,99083.72
2023-04-13T11:54:14.127Z,99087.72
2023-04-13T11:55:23.302Z,99084.00
2023-04-13T11:56:25.971Z,99076.06
2023-04-13T11:57:29.276Z,99076.66
2023-04-13T11:58:32.882Z,99098.94
2023-04-13T11:59:36.343Z,99092.56
2023-04-13T12:00:41.164Z,99090.38
2023-04-13T12:01:50.201Z,99091.84
2023-04-13T12:04:14.880Z,99072.28
2023-04-13T12:05:24.263Z,99082.41
2023-04-13T12:06:27.863Z,99106.25
2023-04-13T12:07:31.291Z,99080.28
2023-04-13T12:08:34.421Z,99071.03
2023-04-13T12:09:55.350Z,99075.03
2023-04-13T12:13:33.247Z,99071.38
2023-04-13T12:14:57.624Z,99072.66
2023-04-13T12:17:34.682Z,99060.22
2023-04-13T12:18:37.442Z,99070.75
2023-04-13T12:19:41.306Z,99066.94
2023-04-13T12:20:48.681Z,99072.31
2023-04-13T12:21:52.878Z,99074.53
2023-04-13T12:23:03.172Z,99077.97
2023-04-13T12:24:11.561Z,99084.13
2023-04-13T12:25:17.607Z,99078.78
2023-04-13T12:26:59.472Z,99078.41
2023-04-13T12:27:43.891Z,99093.72
2023-04-13T12:28:46.605Z,99087.03
2023-04-13T12:29:49.294Z,99075.19
2023-04-13T12:30:51.050Z,99078.94
2023-04-13T12:32:00.528Z,99081.69
2023-04-13T12:33:02.343Z,99074.47
2023-04-13T12:34:07.639Z,99072.34
2023-04-13T12:35:10.062Z,99077.69
2023-04-13T12:36:14.129Z,99091.63